sensor_id;sensor_type;location;lat;lon;timestamp;pressure;altitude;pressure_sealevel;temperature
82638;BMP280;72318;36.628;-121.932;2023-08-30T00:00:01;101335.22;;;22.90
82638;BMP280;72318;36.628;-121.932;2023-08-30T00:02:27;101336.38;;;23.44
82638;BMP280;72318;36.628;-121.932;2023-08-30T00:04:58;101332.97;;;23.52
82638;BMP280;72318;36.628;-121.932;2023-08-30T00:07:25;101333.47;;;22.42
82638;BMP280;72318;36.628;-121.932;2023-08-30T00:09:52;101339.22;;;21.99
82638;BMP280;72318;36.628;-121.932;2023-08-30T00:12:18;101338.38;;;22.02
82638;BMP280;72318;36.628;-121.932;2023-08-30T00:14:45;101331.78;;;21.67
82638;BMP280;72318;36.628;-121.932;2023-08-30T00:17:11;101335.63;;;21.86
82638;BMP280;72318;36.628;-121.932;2023-08-30T00:19:37;101336.84;;;21.69
82638;BMP280;72318;36.628;-121.932;2023-08-30T00:22:03;101334.13;;;21.69
82638;BMP280;72318;36.628;-121.932;2023-08-30T00:24:33;101330.00;;;22.54
82638;BMP280;72318;36.628;-121.932;2023-08-30T00:27:01;101332.22;;;22.14
82638;BMP280;72318;36.628;-121.932;2023-08-30T00:29:28;101335.31;;;20.96
82638;BMP280;72318;36.628;-121.932;2023-08-30T00:31:55;101336.00;;;21.00
82638;BMP280;72318;36.628;-121.932;2023-08-30T00:47:49;101295.84;;;22.05
82638;BMP280;72318;36.628;-121.932;2023-08-30T00:50:15;101289.72;;;21.68
82638;BMP280;72318;36.628;-121.932;2023-08-30T00:52:42;101306.19;;;21.12
82638;BMP280;72318;36.628;-121.932;2023-08-30T00:55:09;101292.09;;;21.14
82638;BMP280;72318;36.628;-121.932;2023-08-30T00:57:37;101304.41;;;21.02
82638;BMP280;72318;36.628;-121.932;2023-08-30T01:00:05;101300.94;;;20.82
82638;BMP280;72318;36.628;-121.932;2023-08-30T01:02:31;101296.25;;;20.43
82638;BMP280;72318;36.628;-121.932;2023-08-30T01:04:58;101300.19;;;21.17
82638;BMP280;72318;36.628;-121.932;2023-08-30T01:07:25;101297.56;;;21.14
82638;BMP280;72318;36.628;-121.932;2023-08-30T01:09:53;101305.28;;;20.79
82638;BMP280;72318;36.628;-121.932;2023-08-30T01:12:24;101302.63;;;20.76
82638;BMP280;72318;36.628;-121.932;2023-08-30T01:15:05;101302.25;;;20.54
82638;BMP280;72318;36.628;-121.932;2023-08-30T01:17:33;101301.22;;;21.07
82638;BMP280;72318;36.628;-121.932;2023-08-30T01:20:05;101304.63;;;20.52
82638;BMP280;72318;36.628;-121.932;2023-08-30T01:22:58;101302.13;;;20.61
82638;BMP280;72318;36.628;-121.932;2023-08-30T01:28:05;101297.50;;;20.38
82638;BMP280;72318;36.628;-121.932;2023-08-30T01:30:37;101295.91;;;20.80
82638;BMP280;72318;36.628;-121.932;2023-08-30T01:33:06;101277.03;;;21.45
82638;BMP280;72318;36.628;-121.932;2023-08-30T01:35:33;101292.41;;;20.80
82638;BMP280;72318;36.628;-121.932;2023-08-30T01:38:05;101280.97;;;22.06
82638;BMP280;72318;36.628;-121.932;2023-08-30T01:40:36;101269.28;;;22.34
82638;BMP280;72318;36.628;-121.932;2023-08-30T01:43:05;101283.88;;;21.66
82638;BMP280;72318;36.628;-121.932;2023-08-30T01:45:43;101276.16;;;22.68
82638;BMP280;72318;36.628;-121.932;2023-08-30T01:48:13;101272.06;;;21.56
82638;BMP280;72318;36.628;-121.932;2023-08-30T01:50:41;101262.81;;;21.34
82638;BMP280;72318;36.628;-121.932;2023-08-30T01:53:11;101281.22;;;21.30
82638;BMP280;72318;36.628;-121.932;2023-08-30T01:58:51;101269.69;;;20.04
82638;BMP280;72318;36.628;-121.932;2023-08-30T02:01:18;101265.53;;;20.42
82638;BMP280;72318;36.628;-121.932;2023-08-30T02:03:47;101264.56;;;19.86
82638;BMP280;72318;36.628;-121.932;2023-08-30T02:09:57;101279.41;;;19.81
82638;BMP280;72318;36.628;-121.932;2023-08-30T02:15:31;101270.41;;;20.51
82638;BMP280;72318;36.628;-121.932;2023-08-30T02:28:24;101279.03;;;21.57
82638;BMP280;72318;36.628;-121.932;2023-08-30T02:30:53;101262.56;;;21.12
82638;BMP280;72318;36.628;-121.932;2023-08-30T02:33:20;101276.28;;;20.89
82638;BMP280;72318;36.628;-121.932;2023-08-30T02:35:47;101267.19;;;21.32
82638;BMP280;72318;36.628;-121.932;2023-08-30T02:38:16;101271.75;;;20.82
82638;BMP280;72318;36.628;-121.932;2023-08-30T02:40:43;101277.44;;;19.82
82638;BMP280;72318;36.628;-121.932;2023-08-30T02:43:12;101278.34;;;19.99
82638;BMP280;72318;36.628;-121.932;2023-08-30T02:45:38;101278.13;;;18.71
82638;BMP280;72318;36.628;-121.932;2023-08-30T02:48:05;101260.16;;;19.45
82638;BMP280;72318;36.628;-121.932;2023-08-30T02:50:34;101267.69;;;19.04
82638;BMP280;72318;36.628;-121.932;2023-08-30T02:53:00;101267.22;;;19.09
82638;BMP280;72318;36.628;-121.932;2023-08-30T02:55:26;101269.25;;;18.29
82638;BMP280;72318;36.628;-121.932;2023-08-30T02:57:55;101260.16;;;19.15
82638;BMP280;72318;36.628;-121.932;2023-08-30T03:00:25;101272.59;;;18.44
82638;BMP280;72318;36.628;-121.932;2023-08-30T03:02:51;101272.75;;;18.68
82638;BMP280;72318;36.628;-121.932;2023-08-30T03:05:21;101268.84;;;18.27
82638;BMP280;72318;36.628;-121.932;2023-08-30T03:07:49;101267.09;;;17.51
82638;BMP280;72318;36.628;-121.932;2023-08-30T03:10:17;101265.09;;;18.55
82638;BMP280;72318;36.628;-121.932;2023-08-30T03:12:46;101266.28;;;18.54
82638;BMP280;72318;36.628;-121.932;2023-08-30T03:15:15;101262.94;;;18.40
82638;BMP280;72318;36.628;-121.932;2023-08-30T03:17:41;101267.56;;;17.94
82638;BMP280;72318;36.628;-121.932;2023-08-30T03:20:07;101270.78;;;18.31
82638;BMP280;72318;36.628;-121.932;2023-08-30T03:22:34;101263.94;;;18.15
82638;BMP280;72318;36.628;-121.932;2023-08-30T03:25:00;101264.63;;;18.23
82638;BMP280;72318;36.628;-121.932;2023-08-30T03:27:29;101271.31;;;18.15
82638;BMP280;72318;36.628;-121.932;2023-08-30T03:30:02;101268.25;;;18.54
82638;BMP280;72318;36.628;-121.932;2023-08-30T03:33:16;101267.03;;;18.14
82638;BMP280;72318;36.628;-121.932;2023-08-30T03:35:39;101251.09;;;17.71
82638;BMP280;72318;36.628;-121.932;2023-08-30T03:38:11;101246.16;;;17.59
82638;BMP280;72318;36.628;-121.932;2023-08-30T03:40:52;101268.19;;;17.61
82638;BMP280;72318;36.628;-121.932;2023-08-30T03:43:30;101252.59;;;17.76
82638;BMP280;72318;36.628;-121.932;2023-08-30T03:46:02;101251.28;;;18.02
82638;BMP280;72318;36.628;-121.932;2023-08-30T03:48:58;101248.44;;;18.16
82638;BMP280;72318;36.628;-121.932;2023-08-30T03:51:24;101267.69;;;18.28
82638;BMP280;72318;36.628;-121.932;2023-08-30T03:53:50;101268.94;;;18.61
82638;BMP280;72318;36.628;-121.932;2023-08-30T03:56:17;101268.50;;;18.97
82638;BMP280;72318;36.628;-121.932;2023-08-30T03:58:46;101273.44;;;18.75
82638;BMP280;72318;36.628;-121.932;2023-08-30T04:01:12;101285.25;;;18.13
82638;BMP280;72318;36.628;-121.932;2023-08-30T04:03:38;101278.28;;;17.57
82638;BMP280;72318;36.628;-121.932;2023-08-30T04:06:08;101277.84;;;17.69
82638;BMP280;72318;36.628;-121.932;2023-08-30T04:08:37;101274.72;;;18.26
82638;BMP280;72318;36.628;-121.932;2023-08-30T04:11:03;101272.19;;;18.01
82638;BMP280;72318;36.628;-121.932;2023-08-30T04:13:29;101273.97;;;18.22
82638;BMP280;72318;36.628;-121.932;2023-08-30T04:15:55;101275.41;;;17.82
82638;BMP280;72318;36.628;-121.932;2023-08-30T04:18:24;101274.38;;;17.69
82638;BMP280;72318;36.628;-121.932;2023-08-30T04:20:50;101285.53;;;17.78
82638;BMP280;72318;36.628;-121.932;2023-08-30T04:23:16;101283.25;;;17.65
82638;BMP280;72318;36.628;-121.932;2023-08-30T04:25:44;101286.81;;;17.59
82638;BMP280;72318;36.628;-121.932;2023-08-30T04:28:10;101284.75;;;17.77
82638;BMP280;72318;36.628;-121.932;2023-08-30T04:30:37;101289.34;;;17.87
82638;BMP280;72318;36.628;-121.932;2023-08-30T04:33:04;101281.97;;;17.84
82638;BMP280;72318;36.628;-121.932;2023-08-30T04:35:31;101279.38;;;17.74
82638;BMP280;72318;36.628;-121.932;2023-08-30T04:38:02;101274.81;;;17.53
82638;BMP280;72318;36.628;-121.932;2023-08-30T04:40:29;101276.97;;;17.79
82638;BMP280;72318;36.628;-121.932;2023-08-30T04:42:57;101275.56;;;17.64
82638;BMP280;72318;36.628;-121.932;2023-08-30T04:45:23;101278.00;;;17.30
82638;BMP280;72318;36.628;-121.932;2023-08-30T04:47:49;101271.69;;;17.61
82638;BMP280;72318;36.628;-121.932;2023-08-30T04:50:16;101282.44;;;16.85
82638;BMP280;72318;36.628;-121.932;2023-08-30T04:52:43;101278.88;;;17.06
82638;BMP280;72318;36.628;-121.932;2023-08-30T04:55:09;101281.44;;;18.07
82638;BMP280;72318;36.628;-121.932;2023-08-30T04:57:36;101282.09;;;17.67
82638;BMP280;72318;36.628;-121.932;2023-08-30T05:00:03;101283.78;;;17.36
82638;BMP280;72318;36.628;-121.932;2023-08-30T05:02:31;101277.41;;;16.80
82638;BMP280;72318;36.628;-121.932;2023-08-30T05:04:58;101273.47;;;17.13
82638;BMP280;72318;36.628;-121.932;2023-08-30T05:07:24;101271.81;;;17.37
82638;BMP280;72318;36.628;-121.932;2023-08-30T05:09:50;101270.88;;;16.56
82638;BMP280;72318;36.628;-121.932;2023-08-30T05:12:17;101272.75;;;16.87
82638;BMP280;72318;36.628;-121.932;2023-08-30T05:14:43;101263.41;;;17.10
82638;BMP280;72318;36.628;-121.932;2023-08-30T05:17:09;101265.03;;;16.89
82638;BMP280;72318;36.628;-121.932;2023-08-30T05:19:35;101258.47;;;16.87
82638;BMP280;72318;36.628;-121.932;2023-08-30T05:22:02;101251.13;;;16.80
82638;BMP280;72318;36.628;-121.932;2023-08-30T05:24:28;101249.22;;;16.59
82638;BMP280;72318;36.628;-121.932;2023-08-30T05:26:54;101253.88;;;16.73
82638;BMP280;72318;36.628;-121.932;2023-08-30T05:29:20;101248.72;;;17.07
82638;BMP280;72318;36.628;-121.932;2023-08-30T05:31:46;101241.88;;;16.63
82638;BMP280;72318;36.628;-121.932;2023-08-30T05:34:13;101246.47;;;16.74
82638;BMP280;72318;36.628;-121.932;2023-08-30T05:36:39;101232.50;;;17.00
82638;BMP280;72318;36.628;-121.932;2023-08-30T05:39:06;101237.88;;;17.11
82638;BMP280;72318;36.628;-121.932;2023-08-30T05:41:32;101239.84;;;17.03
82638;BMP280;72318;36.628;-121.932;2023-08-30T05:43:59;101235.59;;;16.98
82638;BMP280;72318;36.628;-121.932;2023-08-30T05:46:25;101233.72;;;16.74
82638;BMP280;72318;36.628;-121.932;2023-08-30T05:48:54;101224.41;;;16.89
82638;BMP280;72318;36.628;-121.932;2023-08-30T05:51:20;101223.19;;;17.05
82638;BMP280;72318;36.628;-121.932;2023-08-30T05:53:50;101222.31;;;17.29
82638;BMP280;72318;36.628;-121.932;2023-08-30T05:56:16;101217.97;;;16.12
82638;BMP280;72318;36.628;-121.932;2023-08-30T05:58:42;101226.63;;;17.16
82638;BMP280;72318;36.628;-121.932;2023-08-30T06:01:09;101216.72;;;16.70
82638;BMP280;72318;36.628;-121.932;2023-08-30T06:03:35;101222.47;;;16.90
82638;BMP280;72318;36.628;-121.932;2023-08-30T06:06:01;101217.91;;;16.76
82638;BMP280;72318;36.628;-121.932;2023-08-30T06:08:28;101223.22;;;16.97
82638;BMP280;72318;36.628;-121.932;2023-08-30T06:10:54;101218.31;;;16.43
82638;BMP280;72318;36.628;-121.932;2023-08-30T06:13:20;101210.63;;;16.34
82638;BMP280;72318;36.628;-121.932;2023-08-30T06:15:51;101212.56;;;16.19
82638;BMP280;72318;36.628;-121.932;2023-08-30T06:18:18;101212.19;;;16.24
82638;BMP280;72318;36.628;-121.932;2023-08-30T06:20:45;101216.78;;;16.38
82638;BMP280;72318;36.628;-121.932;2023-08-30T06:23:12;101214.09;;;16.17
82638;BMP280;72318;36.628;-121.932;2023-08-30T06:25:39;101198.31;;;16.15
82638;BMP280;72318;36.628;-121.932;2023-08-30T06:28:05;101202.50;;;16.48
82638;BMP280;72318;36.628;-121.932;2023-08-30T06:30:33;101204.41;;;16.48
82638;BMP280;72318;36.628;-121.932;2023-08-30T06:32:59;101193.28;;;16.03
82638;BMP280;72318;36.628;-121.932;2023-08-30T06:35:26;101198.63;;;16.28
82638;BMP280;72318;36.628;-121.932;2023-08-30T06:37:52;101195.53;;;16.33
82638;BMP280;72318;36.628;-121.932;2023-08-30T06:40:19;101200.59;;;16.13
82638;BMP280;72318;36.628;-121.932;2023-08-30T06:42:45;101192.47;;;16.10
82638;BMP280;72318;36.628;-121.932;2023-08-30T06:45:12;101196.72;;;16.14
82638;BMP280;72318;36.628;-121.932;2023-08-30T06:47:38;101188.19;;;16.62
82638;BMP280;72318;36.628;-121.932;2023-08-30T06:50:08;101185.06;;;16.56
82638;BMP280;72318;36.628;-121.932;2023-08-30T06:52:35;101180.00;;;16.65
82638;BMP280;72318;36.628;-121.932;2023-08-30T06:55:02;101190.91;;;16.23
82638;BMP280;72318;36.628;-121.932;2023-08-30T06:57:28;101189.03;;;16.02
82638;BMP280;72318;36.628;-121.932;2023-08-30T06:59:54;101187.03;;;16.38
82638;BMP280;72318;36.628;-121.932;2023-08-30T07:02:21;101179.34;;;16.12
82638;BMP280;72318;36.628;-121.932;2023-08-30T07:04:47;101183.59;;;16.23
82638;BMP280;72318;36.628;-121.932;2023-08-30T07:07:13;101182.78;;;16.41
82638;BMP280;72318;36.628;-121.932;2023-08-30T07:09:40;101188.13;;;16.76
82638;BMP280;72318;36.628;-121.932;2023-08-30T07:12:07;101185.03;;;16.78
82638;BMP280;72318;36.628;-121.932;2023-08-30T07:14:36;101185.84;;;16.67
82638;BMP280;72318;36.628;-121.932;2023-08-30T07:17:02;101173.88;;;16.54
82638;BMP280;72318;36.628;-121.932;2023-08-30T07:19:29;101170.44;;;16.36
82638;BMP280;72318;36.628;-121.932;2023-08-30T07:21:55;101177.78;;;16.28
82638;BMP280;72318;36.628;-121.932;2023-08-30T07:24:22;101167.75;;;16.29
82638;BMP280;72318;36.628;-121.932;2023-08-30T07:26:48;101170.00;;;16.62
82638;BMP280;72318;36.628;-121.932;2023-08-30T07:29:14;101171.63;;;16.14
82638;BMP280;72318;36.628;-121.932;2023-08-30T07:31:41;101172.38;;;16.21
82638;BMP280;72318;36.628;-121.932;2023-08-30T07:34:07;101168.44;;;16.47
82638;BMP280;72318;36.628;-121.932;2023-08-30T07:36:33;101164.25;;;16.39
82638;BMP280;72318;36.628;-121.932;2023-08-30T07:39:00;101167.69;;;16.54
82638;BMP280;72318;36.628;-121.932;2023-08-30T07:41:28;101154.19;;;16.47
82638;BMP280;72318;36.628;-121.932;2023-08-30T07:43:55;101157.97;;;16.70
82638;BMP280;72318;36.628;-121.932;2023-08-30T07:46:21;101158.34;;;16.76
82638;BMP280;72318;36.628;-121.932;2023-08-30T07:48:47;101149.69;;;17.06
82638;BMP280;72318;36.628;-121.932;2023-08-30T07:51:13;101155.66;;;16.76
82638;BMP280;72318;36.628;-121.932;2023-08-30T07:53:40;101154.16;;;16.54
82638;BMP280;72318;36.628;-121.932;2023-08-30T07:56:06;101153.38;;;16.67
82638;BMP280;72318;36.628;-121.932;2023-08-30T07:58:33;101149.53;;;16.51
82638;BMP280;72318;36.628;-121.932;2023-08-30T08:00:59;101149.59;;;17.24
82638;BMP280;72318;36.628;-121.932;2023-08-30T08:03:25;101145.94;;;16.86
82638;BMP280;72318;36.628;-121.932;2023-08-30T08:05:52;101136.16;;;17.06
82638;BMP280;72318;36.628;-121.932;2023-08-30T08:08:18;101144.25;;;17.10
82638;BMP280;72318;36.628;-121.932;2023-08-30T08:10:44;101149.06;;;16.70
82638;BMP280;72318;36.628;-121.932;2023-08-30T08:13:11;101142.22;;;16.37
82638;BMP280;72318;36.628;-121.932;2023-08-30T08:15:38;101147.97;;;16.43
82638;BMP280;72318;36.628;-121.932;2023-08-30T08:18:04;101137.16;;;16.43
82638;BMP280;72318;36.628;-121.932;2023-08-30T08:20:31;101142.25;;;16.30
82638;BMP280;72318;36.628;-121.932;2023-08-30T08:22:58;101141.06;;;16.42
82638;BMP280;72318;36.628;-121.932;2023-08-30T08:25:24;101142.25;;;16.30
82638;BMP280;72318;36.628;-121.932;2023-08-30T08:27:51;101144.16;;;16.40
82638;BMP280;72318;36.628;-121.932;2023-08-30T08:30:17;101138.75;;;16.33
82638;BMP280;72318;36.628;-121.932;2023-08-30T08:32:45;101136.78;;;16.37
82638;BMP280;72318;36.628;-121.932;2023-08-30T08:35:13;101139.13;;;16.31
82638;BMP280;72318;36.628;-121.932;2023-08-30T08:37:39;101129.81;;;16.50
82638;BMP280;72318;36.628;-121.932;2023-08-30T08:40:06;101136.84;;;16.23
82638;BMP280;72318;36.628;-121.932;2023-08-30T08:42:35;101124.03;;;16.52
82638;BMP280;72318;36.628;-121.932;2023-08-30T08:45:04;101130.19;;;16.59
82638;BMP280;72318;36.628;-121.932;2023-08-30T08:47:52;101128.00;;;16.08
82638;BMP280;72318;36.628;-121.932;2023-08-30T08:50:45;101122.56;;;16.19
82638;BMP280;72318;36.628;-121.932;2023-08-30T08:53:32;101127.69;;;16.97
82638;BMP280;72318;36.628;-121.932;2023-08-30T08:55:58;101122.06;;;16.63
82638;BMP280;72318;36.628;-121.932;2023-08-30T08:58:26;101130.59;;;16.54
82638;BMP280;72318;36.628;-121.932;2023-08-30T09:00:53;101141.47;;;16.19
82638;BMP280;72318;36.628;-121.932;2023-08-30T09:03:21;101126.84;;;16.20
82638;BMP280;72318;36.628;-121.932;2023-08-30T09:05:48;101124.88;;;16.31
82638;BMP280;72318;36.628;-121.932;2023-08-30T09:08:15;101118.22;;;16.50
82638;BMP280;72318;36.628;-121.932;2023-08-30T09:10:44;101105.97;;;16.20
82638;BMP280;72318;36.628;-121.932;2023-08-30T09:13:11;101106.31;;;16.36
82638;BMP280;72318;36.628;-121.932;2023-08-30T09:15:37;101109.38;;;16.31
82638;BMP280;72318;36.628;-121.932;2023-08-30T09:18:03;101109.41;;;16.21
82638;BMP280;72318;36.628;-121.932;2023-08-30T09:20:32;101102.84;;;16.22
82638;BMP280;72318;36.628;-121.932;2023-08-30T09:22:58;101103.66;;;16.15
82638;BMP280;72318;36.628;-121.932;2023-08-30T09:25:27;101098.97;;;16.26
82638;BMP280;72318;36.628;-121.932;2023-08-30T09:27:58;101098.25;;;16.08
82638;BMP280;72318;36.628;-121.932;2023-08-30T09:30:29;101103.63;;;16.19
82638;BMP280;72318;36.628;-121.932;2023-08-30T09:33:03;101100.16;;;16.22
82638;BMP280;72318;36.628;-121.932;2023-08-30T09:35:30;101088.94;;;16.30
82638;BMP280;72318;36.628;-121.932;2023-08-30T09:37:56;101090.91;;;16.05
82638;BMP280;72318;36.628;-121.932;2023-08-30T09:40:23;101095.91;;;16.14
82638;BMP280;72318;36.628;-121.932;2023-08-30T09:42:49;101093.94;;;16.28
82638;BMP280;72318;36.628;-121.932;2023-08-30T09:45:24;101092.88;;;15.97
82638;BMP280;72318;36.628;-121.932;2023-08-30T09:47:51;101082.41;;;16.06
82638;BMP280;72318;36.628;-121.932;2023-08-30T09:50:20;101095.53;;;16.12
82638;BMP280;72318;36.628;-121.932;2023-08-30T09:52:47;101086.69;;;15.86
82638;BMP280;72318;36.628;-121.932;2023-08-30T09:55:21;101087.06;;;15.99
82638;BMP280;72318;36.628;-121.932;2023-08-30T09:57:48;101082.38;;;16.17
82638;BMP280;72318;36.628;-121.932;2023-08-30T10:00:15;101083.97;;;15.68
82638;BMP280;72318;36.628;-121.932;2023-08-30T10:02:42;101086.31;;;15.73
82638;BMP280;72318;36.628;-121.932;2023-08-30T10:05:11;101096.38;;;15.87
82638;BMP280;72318;36.628;-121.932;2023-08-30T10:07:41;101102.91;;;15.61
82638;BMP280;72318;36.628;-121.932;2023-08-30T10:10:09;101099.47;;;15.64
82638;BMP280;72318;36.628;-121.932;2023-08-30T10:12:36;101104.44;;;15.62
82638;BMP280;72318;36.628;-121.932;2023-08-30T10:15:06;101099.44;;;15.54
82638;BMP280;72318;36.628;-121.932;2023-08-30T10:17:33;101100.19;;;15.47
82638;BMP280;72318;36.628;-121.932;2023-08-30T10:20:04;101100.19;;;15.51
82638;BMP280;72318;36.628;-121.932;2023-08-30T10:22:32;101099.84;;;15.59
82638;BMP280;72318;36.628;-121.932;2023-08-30T10:25:04;101084.38;;;15.63
82638;BMP280;72318;36.628;-121.932;2023-08-30T10:27:33;101096.34;;;15.62
82638;BMP280;72318;36.628;-121.932;2023-08-30T10:30:02;101091.69;;;15.77
82638;BMP280;72318;36.628;-121.932;2023-08-30T10:32:30;101086.69;;;15.68
82638;BMP280;72318;36.628;-121.932;2023-08-30T10:35:00;101090.94;;;15.59
82638;BMP280;72318;36.628;-121.932;2023-08-30T10:37:28;101088.22;;;15.62
82638;BMP280;72318;36.628;-121.932;2023-08-30T10:39:59;101098.25;;;15.72
82638;BMP280;72318;36.628;-121.932;2023-08-30T10:42:29;101090.94;;;15.84
82638;BMP280;72318;36.628;-121.932;2023-08-30T10:45:06;101084.00;;;15.79
82638;BMP280;72318;36.628;-121.932;2023-08-30T10:47:36;101088.25;;;15.84
82638;BMP280;72318;36.628;-121.932;2023-08-30T10:50:12;101080.91;;;15.84
82638;BMP280;72318;36.628;-121.932;2023-08-30T10:52:39;101090.13;;;16.04
82638;BMP280;72318;36.628;-121.932;2023-08-30T10:55:15;101092.84;;;15.90
82638;BMP280;72318;36.628;-121.932;2023-08-30T10:57:42;101085.13;;;15.89
82638;BMP280;72318;36.628;-121.932;2023-08-30T11:00:19;101086.69;;;15.75
82638;BMP280;72318;36.628;-121.932;2023-08-30T11:02:49;101083.59;;;15.77
82638;BMP280;72318;36.628;-121.932;2023-08-30T11:05:18;101080.91;;;15.88
82638;BMP280;72318;36.628;-121.932;2023-08-30T11:07:44;101073.94;;;15.83
82638;BMP280;72318;36.628;-121.932;2023-08-30T11:10:11;101075.13;;;15.79
82638;BMP280;72318;36.628;-121.932;2023-08-30T11:12:40;101070.09;;;15.84
82638;BMP280;72318;36.628;-121.932;2023-08-30T11:15:09;101065.06;;;15.86
82638;BMP280;72318;36.628;-121.932;2023-08-30T11:17:35;101061.59;;;15.86
82638;BMP280;72318;36.628;-121.932;2023-08-30T11:20:09;101059.66;;;15.86
82638;BMP280;72318;36.628;-121.932;2023-08-30T11:22:40;101057.72;;;15.87
82638;BMP280;72318;36.628;-121.932;2023-08-30T11:25:11;101057.34;;;15.92
82638;BMP280;72318;36.628;-121.932;2023-08-30T11:27:41;101071.19;;;16.04
82638;BMP280;72318;36.628;-121.932;2023-08-30T11:30:09;101069.28;;;15.94
82638;BMP280;72318;36.628;-121.932;2023-08-30T11:32:37;101068.91;;;15.89
82638;BMP280;72318;36.628;-121.932;2023-08-30T11:35:04;101071.97;;;16.12
82638;BMP280;72318;36.628;-121.932;2023-08-30T11:37:31;101065.84;;;15.87
82638;BMP280;72318;36.628;-121.932;2023-08-30T11:39:58;101067.72;;;16.00
82638;BMP280;72318;36.628;-121.932;2023-08-30T11:42:25;101067.72;;;16.18
82638;BMP280;72318;36.628;-121.932;2023-08-30T11:44:52;101064.63;;;16.13
82638;BMP280;72318;36.628;-121.932;2023-08-30T11:47:19;101058.88;;;15.89
82638;BMP280;72318;36.628;-121.932;2023-08-30T11:49:49;101059.66;;;15.97
82638;BMP280;72318;36.628;-121.932;2023-08-30T11:52:19;101065.09;;;15.83
82638;BMP280;72318;36.628;-121.932;2023-08-30T11:54:49;101054.66;;;15.81
82638;BMP280;72318;36.628;-121.932;2023-08-30T11:57:16;101056.59;;;15.73
82638;BMP280;72318;36.628;-121.932;2023-08-30T11:59:43;101046.91;;;15.87
82638;BMP280;72318;36.628;-121.932;2023-08-30T12:02:11;101053.88;;;15.77
82638;BMP280;72318;36.628;-121.932;2023-08-30T12:04:45;101051.94;;;15.88
82638;BMP280;72318;36.628;-121.932;2023-08-30T12:07:26;101053.06;;;15.94
82638;BMP280;72318;36.628;-121.932;2023-08-30T12:09:52;101057.34;;;15.81
82638;BMP280;72318;36.628;-121.932;2023-08-30T12:12:32;101060.06;;;15.63
82638;BMP280;72318;36.628;-121.932;2023-08-30T12:14:59;101051.56;;;15.79
82638;BMP280;72318;36.628;-121.932;2023-08-30T12:17:25;101057.72;;;15.72
82638;BMP280;72318;36.628;-121.932;2023-08-30T12:19:59;101057.34;;;15.63
82638;BMP280;72318;36.628;-121.932;2023-08-30T12:22:38;101054.25;;;15.86
82638;BMP280;72318;36.628;-121.932;2023-08-30T12:25:19;101056.19;;;15.61
82638;BMP280;72318;36.628;-121.932;2023-08-30T12:27:46;101050.06;;;15.60
82638;BMP280;72318;36.628;-121.932;2023-08-30T12:30:18;101052.75;;;15.53
82638;BMP280;72318;36.628;-121.932;2023-08-30T12:32:45;101051.19;;;15.52
82638;BMP280;72318;36.628;-121.932;2023-08-30T12:35:11;101047.72;;;15.55
82638;BMP280;72318;36.628;-121.932;2023-08-30T12:37:37;101043.88;;;15.60
82638;BMP280;72318;36.628;-121.932;2023-08-30T12:40:07;101045.03;;;15.48
82638;BMP280;72318;36.628;-121.932;2023-08-30T12:42:33;101049.69;;;15.55
82638;BMP280;72318;36.628;-121.932;2023-08-30T12:44:59;101048.50;;;15.38
82638;BMP280;72318;36.628;-121.932;2023-08-30T12:47:26;101057.72;;;15.40
82638;BMP280;72318;36.628;-121.932;2023-08-30T12:49:52;101056.56;;;15.45
82638;BMP280;72318;36.628;-121.932;2023-08-30T12:52:18;101051.97;;;15.70
82638;BMP280;72318;36.628;-121.932;2023-08-30T12:54:45;101051.94;;;15.38
82638;BMP280;72318;36.628;-121.932;2023-08-30T12:57:11;101062.41;;;15.36
82638;BMP280;72318;36.628;-121.932;2023-08-30T12:59:37;101057.72;;;15.44
82638;BMP280;72318;36.628;-121.932;2023-08-30T13:02:03;101069.34;;;15.37
82638;BMP280;72318;36.628;-121.932;2023-08-30T13:04:30;101062.00;;;15.73
82638;BMP280;72318;36.628;-121.932;2023-08-30T13:06:56;101063.56;;;15.42
82638;BMP280;72318;36.628;-121.932;2023-08-30T13:09:22;101063.53;;;15.53
82638;BMP280;72318;36.628;-121.932;2023-08-30T13:11:49;101064.72;;;15.38
82638;BMP280;72318;36.628;-121.932;2023-08-30T13:14:15;101059.66;;;15.26
82638;BMP280;72318;36.628;-121.932;2023-08-30T13:16:41;101063.16;;;15.69
82638;BMP280;72318;36.628;-121.932;2023-08-30T13:19:07;101067.00;;;15.39
82638;BMP280;72318;36.628;-121.932;2023-08-30T13:21:33;101073.56;;;15.67
82638;BMP280;72318;36.628;-121.932;2023-08-30T13:24:00;101073.94;;;15.33
82638;BMP280;72318;36.628;-121.932;2023-08-30T13:26:26;101080.53;;;15.57
82638;BMP280;72318;36.628;-121.932;2023-08-30T13:28:52;101076.66;;;15.48
82638;BMP280;72318;36.628;-121.932;2023-08-30T13:31:18;101087.81;;;15.39
82638;BMP280;72318;36.628;-121.932;2023-08-30T13:33:44;101090.56;;;15.46
82638;BMP280;72318;36.628;-121.932;2023-08-30T13:36:11;101092.06;;;15.29
82638;BMP280;72318;36.628;-121.932;2023-08-30T13:38:37;101096.34;;;15.59
82638;BMP280;72318;36.628;-121.932;2023-08-30T13:41:04;101104.47;;;15.77
82638;BMP280;72318;36.628;-121.932;2023-08-30T13:43:30;101104.44;;;15.73
82638;BMP280;72318;36.628;-121.932;2023-08-30T13:45:58;101103.31;;;15.60
82638;BMP280;72318;36.628;-121.932;2023-08-30T13:48:24;101101.38;;;15.78
82638;BMP280;72318;36.628;-121.932;2023-08-30T13:50:51;101109.88;;;15.87
82638;BMP280;72318;36.628;-121.932;2023-08-30T13:53:17;101120.69;;;15.69
82638;BMP280;72318;36.628;-121.932;2023-08-30T13:55:47;101133.03;;;15.92
82638;BMP280;72318;36.628;-121.932;2023-08-30T13:58:14;101123.34;;;15.62
82638;BMP280;72318;36.628;-121.932;2023-08-30T14:00:41;101128.38;;;15.82
82638;BMP280;72318;36.628;-121.932;2023-08-30T14:03:08;101124.53;;;15.93